createdAt,value
2022-12-26T00:02:15.326Z,100254.91
2022-12-26T00:04:52.461Z,100252.97
2022-12-26T00:07:20.210Z,100223.00
2022-12-26T00:09:46.811Z,100239.47
2022-12-26T00:12:14.197Z,100251.09
2022-12-26T00:14:40.966Z,100258.00
2022-12-26T00:17:07.787Z,100251.66
2022-12-26T00:19:34.835Z,100220.34
2022-12-26T00:22:01.351Z,100217.09
2022-12-26T00:24:27.885Z,100249.41
2022-12-26T00:26:54.486Z,100209.09
2022-12-26T00:29:21.000Z,100225.03
2022-12-26T00:31:47.652Z,100228.41
2022-12-26T00:34:14.271Z,100147.75
2022-12-26T00:36:41.303Z,100250.13
2022-12-26T00:39:11.263Z,100244.69
2022-12-26T00:41:37.889Z,100191.28
2022-12-26T00:44:04.476Z,100148.56
2022-12-26T00:46:32.148Z,100239.78
2022-12-26T00:48:58.785Z,100246.44
2022-12-26T00:51:25.320Z,100233.56
2022-12-26T00:53:51.998Z,100216.63
2022-12-26T00:56:18.523Z,100212.84
2022-12-26T00:58:45.105Z,100207.53
2022-12-26T01:01:21.741Z,100234.63
2022-12-26T01:03:51.464Z,100243.00
2022-12-26T01:06:18.216Z,100178.22
2022-12-26T01:08:45.229Z,100170.09
2022-12-26T01:11:13.476Z,100261.38
2022-12-26T01:13:40.145Z,100185.78
2022-12-26T01:16:07.697Z,100252.09
2022-12-26T01:18:34.665Z,100236.44
2022-12-26T01:21:07.754Z,100244.72
2022-12-26T01:23:34.300Z,100153.25
2022-12-26T01:26:15.456Z,100169.22
2022-12-26T01:28:50.141Z,100193.31
2022-12-26T01:31:17.271Z,100209.84
2022-12-26T01:33:44.031Z,100280.66
2022-12-26T01:36:10.799Z,100277.34
2022-12-26T01:38:37.428Z,100237.28
2022-12-26T01:41:22.113Z,100228.19
2022-12-26T01:43:54.702Z,100287.44
2022-12-26T01:46:32.637Z,100288.69
2022-12-26T01:49:04.455Z,100236.19
2022-12-26T01:51:34.076Z,100272.59
2022-12-26T01:54:40.697Z,100273.16
2022-12-26T01:56:49.699Z,100214.28
2022-12-26T01:59:21.397Z,100268.50
2022-12-26T02:01:49.525Z,100292.53
2022-12-26T02:04:37.243Z,100298.31
2022-12-26T02:07:04.400Z,100286.97
2022-12-26T02:09:31.647Z,100283.34
2022-12-26T02:12:33.799Z,100290.06
2022-12-26T02:14:56.409Z,100254.56
2022-12-26T02:17:23.203Z,100297.81
2022-12-26T02:19:56.453Z,100290.13
2022-12-26T02:22:45.996Z,100283.09
2022-12-26T02:25:25.113Z,100295.47
2022-12-26T02:27:54.558Z,100316.06
2022-12-26T02:30:41.145Z,100324.91
2022-12-26T02:33:16.705Z,100320.38
2022-12-26T02:36:02.586Z,100262.69
2022-12-26T02:38:45.574Z,100315.53
2022-12-26T02:41:37.981Z,100263.78
2022-12-26T02:44:24.381Z,100304.13
2022-12-26T02:47:03.333Z,100311.34
2022-12-26T02:50:01.077Z,100294.75
2022-12-26T02:53:12.297Z,100315.41
2022-12-26T02:56:00.096Z,100303.75
2022-12-26T02:58:57.533Z,100286.25
2022-12-26T03:01:56.428Z,100313.31
2022-12-26T03:04:43.339Z,100280.69
2022-12-26T03:07:35.154Z,100308.38
2022-12-26T03:10:22.797Z,100311.25
2022-12-26T03:13:11.914Z,100253.44
2022-12-26T03:16:03.487Z,100300.66
2022-12-26T03:18:58.120Z,100305.31
2022-12-26T03:21:22.110Z,100300.63
2022-12-26T03:23:49.027Z,100306.97
2022-12-26T03:26:37.818Z,100309.06
2022-12-26T03:29:23.010Z,100312.56
2022-12-26T03:31:49.537Z,100292.44
2022-12-26T03:34:18.877Z,100306.28
2022-12-26T03:37:10.125Z,100307.13
2022-12-26T03:40:29.902Z,100311.59
2022-12-26T03:43:37.991Z,100312.56
2022-12-26T03:46:35.460Z,100320.72
2022-12-26T03:49:35.959Z,100309.66
2022-12-26T03:52:25.172Z,100298.56
2022-12-26T03:55:20.545Z,100314.44
2022-12-26T03:58:19.963Z,100329.44
2022-12-26T04:01:06.891Z,100309.28
2022-12-26T04:03:53.783Z,100310.50
2022-12-26T04:06:43.556Z,100338.97
2022-12-26T04:09:32.391Z,100325.84
2022-12-26T04:12:19.083Z,100309.06
2022-12-26T04:15:13.944Z,100317.41
2022-12-26T04:18:07.301Z,100279.50
2022-12-26T04:20:36.913Z,100329.06
2022-12-26T04:23:22.223Z,100336.19
2022-12-26T04:26:24.272Z,100313.91
2022-12-26T04:29:09.453Z,100303.16
2022-12-26T04:32:04.142Z,100349.34
2022-12-26T04:35:00.426Z,100310.34
2022-12-26T04:37:46.736Z,100356.47
2022-12-26T04:40:37.771Z,100370.47
2022-12-26T04:43:50.187Z,100315.78
2022-12-26T04:46:10.380Z,100363.00
2022-12-26T04:49:01.986Z,100354.41
2022-12-26T04:51:28.511Z,100326.75
2022-12-26T04:53:55.043Z,100366.38
2022-12-26T04:56:21.712Z,100367.25
2022-12-26T04:58:48.174Z,100364.72
2022-12-26T05:01:33.419Z,100365.97
2022-12-26T05:04:18.662Z,100373.97
2022-12-26T05:07:03.893Z,100375.84
2022-12-26T05:09:36.468Z,100371.44
2022-12-26T05:12:07.982Z,100399.34
2022-12-26T05:14:35.950Z,100332.97
2022-12-26T05:17:22.460Z,100395.41
2022-12-26T05:20:07.570Z,100390.28
2022-12-26T05:22:54.001Z,100345.75
2022-12-26T05:25:42.571Z,100347.31
2022-12-26T05:28:32.037Z,100383.75
2022-12-26T05:30:58.969Z,100386.16
2022-12-26T05:33:44.132Z,100388.38
2022-12-26T05:36:10.763Z,100338.34
2022-12-26T05:38:37.483Z,100349.53
2022-12-26T05:41:04.351Z,100395.06
2022-12-26T05:43:30.951Z,100370.06
2022-12-26T05:45:57.872Z,100398.34
2022-12-26T05:48:24.500Z,100397.91
2022-12-26T05:50:50.970Z,100379.91
2022-12-26T05:53:17.701Z,100374.69
2022-12-26T05:55:44.296Z,100387.94
2022-12-26T05:58:10.822Z,100394.56
2022-12-26T06:00:37.377Z,100402.47
2022-12-26T06:03:04.296Z,100397.78
2022-12-26T06:05:30.896Z,100385.38
2022-12-26T06:07:57.487Z,100362.66
2022-12-26T06:10:26.232Z,100408.53
2022-12-26T06:12:53.282Z,100410.78
2022-12-26T06:15:19.748Z,100417.78
2022-12-26T06:17:46.276Z,100391.16
2022-12-26T06:20:12.969Z,100412.19
2022-12-26T06:22:39.741Z,100402.06
2022-12-26T06:25:07.145Z,100382.47
2022-12-26T06:27:34.064Z,100350.19
2022-12-26T06:30:00.621Z,100382.91
2022-12-26T06:32:27.075Z,100375.97
2022-12-26T06:34:53.541Z,100356.59
2022-12-26T06:37:20.001Z,100350.31
2022-12-26T06:39:46.529Z,100379.84
2022-12-26T06:42:13.005Z,100380.31
2022-12-26T06:44:39.544Z,100358.03
2022-12-26T06:47:06.162Z,100381.03
2022-12-26T06:49:33.352Z,100390.22
2022-12-26T06:52:00.381Z,100372.47
2022-12-26T06:54:26.932Z,100391.16
2022-12-26T06:56:53.510Z,100382.84
2022-12-26T06:59:20.065Z,100411.22
2022-12-26T07:01:46.763Z,100363.47
2022-12-26T07:04:13.750Z,100358.16
2022-12-26T07:06:40.357Z,100397.75
2022-12-26T07:09:09.850Z,100367.41
2022-12-26T07:11:38.365Z,100407.72
2022-12-26T07:14:06.286Z,100411.72
2022-12-26T07:16:39.924Z,100416.41
2022-12-26T07:19:07.498Z,100419.56
2022-12-26T07:21:40.092Z,100383.75
2022-12-26T07:24:08.908Z,100405.97
2022-12-26T07:26:35.569Z,100411.97
2022-12-26T07:29:02.117Z,100417.88
2022-12-26T07:31:29.274Z,100450.53
2022-12-26T07:33:56.908Z,100447.69
2022-12-26T07:36:25.155Z,100456.63
2022-12-26T07:38:52.163Z,100442.41
2022-12-26T07:41:37.804Z,100449.81
2022-12-26T07:44:05.891Z,100447.50
2022-12-26T07:46:33.199Z,100459.94
2022-12-26T07:49:00.445Z,100430.78
2022-12-26T07:51:27.637Z,100455.00
2022-12-26T07:53:54.372Z,100457.41
2022-12-26T07:56:20.861Z,100420.81
2022-12-26T07:58:51.393Z,100417.53
2022-12-26T08:01:18.317Z,100464.63
2022-12-26T08:03:45.343Z,100465.00
2022-12-26T08:06:12.390Z,100461.44
2022-12-26T08:08:38.923Z,100460.94
2022-12-26T08:11:07.145Z,100452.16
2022-12-26T08:13:35.095Z,100415.94
2022-12-26T08:16:06.717Z,100460.72
2022-12-26T08:18:33.703Z,100462.25
2022-12-26T08:21:00.210Z,100470.31
2022-12-26T08:23:27.943Z,100470.22
2022-12-26T08:25:54.465Z,100471.47
2022-12-26T08:28:21.003Z,100421.59
2022-12-26T08:30:49.563Z,100409.41
2022-12-26T08:33:16.446Z,100463.66
2022-12-26T08:35:43.028Z,100474.06
2022-12-26T08:38:09.464Z,100462.22
2022-12-26T08:40:43.474Z,100442.13
2022-12-26T08:43:32.099Z,100430.91
2022-12-26T08:46:06.768Z,100467.56
2022-12-26T08:48:38.056Z,100474.00
2022-12-26T08:51:23.933Z,100469.53
2022-12-26T08:53:51.397Z,100488.84
2022-12-26T08:56:20.872Z,100487.41
2022-12-26T08:58:48.020Z,100500.78
2022-12-26T09:01:20.916Z,100487.47
2022-12-26T09:03:47.674Z,100482.28
2022-12-26T09:06:15.196Z,100500.38
2022-12-26T09:08:42.117Z,100494.41
2022-12-26T09:11:12.113Z,100506.00
2022-12-26T09:13:39.072Z,100519.34
2022-12-26T09:16:09.944Z,100520.22
2022-12-26T09:18:36.967Z,100510.53
2022-12-26T09:21:05.237Z,100503.34
2022-12-26T09:23:31.739Z,100496.75
2022-12-26T09:26:06.290Z,100523.38
2022-12-26T09:28:33.392Z,100511.19
2022-12-26T09:31:05.266Z,100512.47
2022-12-26T09:33:37.688Z,100501.97
2022-12-26T09:36:14.446Z,100481.78
2022-12-26T09:38:42.381Z,100507.38
2022-12-26T09:41:32.123Z,100514.47
2022-12-26T09:44:14.668Z,100496.69
2022-12-26T09:47:02.766Z,100518.38
2022-12-26T09:49:33.159Z,100492.97
2022-12-26T09:52:04.637Z,100515.72
2022-12-26T09:54:39.310Z,100511.56
2022-12-26T09:57:17.452Z,100477.63
2022-12-26T09:59:58.270Z,100519.91
2022-12-26T10:02:26.521Z,100510.69
2022-12-26T10:04:54.829Z,100535.44
2022-12-26T10:07:27.467Z,100534.28
2022-12-26T10:09:58.267Z,100516.88
2022-12-26T10:12:38.766Z,100519.75
2022-12-26T10:15:30.121Z,100526.00
2022-12-26T10:18:16.527Z,100534.94
2022-12-26T10:21:07.691Z,100515.81
2022-12-26T10:23:49.377Z,100531.25
2022-12-26T10:26:20.093Z,100511.47
2022-12-26T10:28:56.534Z,100504.59
2022-12-26T10:31:31.081Z,100523.69
2022-12-26T10:34:20.688Z,100530.47
2022-12-26T10:36:48.888Z,100531.22
2022-12-26T10:39:25.396Z,100543.63
2022-12-26T10:41:58.811Z,100544.63
2022-12-26T10:44:28.046Z,100540.34
2022-12-26T10:47:07.909Z,100532.72
2022-12-26T10:49:34.366Z,100528.81
2022-12-26T10:52:01.987Z,100520.22
2022-12-26T10:54:29.707Z,100527.13
2022-12-26T10:56:57.746Z,100521.75
2022-12-26T10:59:36.300Z,100512.59
2022-12-26T11:02:16.623Z,100507.78
2022-12-26T11:05:33.236Z,100524.25
2022-12-26T11:07:51.641Z,100520.41
2022-12-26T11:10:21.354Z,100510.34
2022-12-26T11:12:53.320Z,100535.72
2022-12-26T11:15:42.778Z,100529.03
2022-12-26T11:18:16.051Z,100528.22
2022-12-26T11:20:43.416Z,100524.25
2022-12-26T11:23:28.946Z,100510.34
2022-12-26T11:26:00.570Z,100525.38
2022-12-26T11:28:33.717Z,100525.50
2022-12-26T11:31:02.092Z,100531.25
2022-12-26T11:33:45.626Z,100528.72
2022-12-26T11:36:15.183Z,100532.94
2022-12-26T11:38:50.786Z,100511.03
2022-12-26T11:41:31.710Z,100518.84
2022-12-26T11:44:10.400Z,100523.13
2022-12-26T11:46:38.017Z,100530.47
2022-12-26T11:49:05.315Z,100522.00
2022-12-26T11:51:39.133Z,100531.56
2022-12-26T11:54:35.807Z,100530.50
2022-12-26T11:57:17.781Z,100531.75
2022-12-26T11:59:44.683Z,100532.13
2022-12-26T12:02:19.508Z,100513.78
2022-12-26T12:04:47.434Z,100530.66
2022-12-26T12:07:39.740Z,100537.13
2022-12-26T12:10:21.464Z,100534.78
2022-12-26T12:13:17.100Z,100525.47
2022-12-26T12:16:11.243Z,100524.56
2022-12-26T12:18:55.591Z,100551.22
2022-12-26T12:21:40.980Z,100552.13
2022-12-26T12:24:32.774Z,100535.41
2022-12-26T12:27:37.987Z,100523.63
2022-12-26T12:30:27.646Z,100535.31
2022-12-26T12:32:57.499Z,100527.78
2022-12-26T12:35:51.899Z,100526.94
2022-12-26T12:38:32.116Z,100520.03
2022-12-26T12:41:21.205Z,100528.03
2022-12-26T12:44:06.502Z,100516.34
2022-12-26T12:47:14.620Z,100511.72
2022-12-26T12:50:07.194Z,100516.19
2022-12-26T12:52:33.757Z,100514.75
2022-12-26T12:55:00.594Z,100514.38
2022-12-26T12:57:38.865Z,100515.38
2022-12-26T13:00:08.502Z,100507.72
2022-12-26T13:02:45.772Z,100518.31
2022-12-26T13:05:34.091Z,100518.25
2022-12-26T13:08:06.995Z,100512.28
2022-12-26T13:10:35.914Z,100520.78
2022-12-26T13:13:28.074Z,100543.19
2022-12-26T13:15:58.760Z,100579.09
2022-12-26T13:18:30.076Z,100558.81
2022-12-26T13:21:07.486Z,100563.88
2022-12-26T13:23:59.801Z,100574.38
2022-12-26T13:26:32.516Z,100583.53
2022-12-26T13:29:11.201Z,100593.66
2022-12-26T13:31:39.331Z,100594.53
2022-12-26T13:34:09.879Z,100598.97
2022-12-26T13:36:40.927Z,100590.78
2022-12-26T13:39:21.612Z,100596.41
2022-12-26T13:42:21.276Z,100566.41
2022-12-26T13:44:53.350Z,100606.22
2022-12-26T13:47:39.316Z,100609.69
2022-12-26T13:50:51.743Z,100603.78
2022-12-26T13:53:24.773Z,100618.25
2022-12-26T13:55:52.770Z,100626.09
2022-12-26T13:58:29.921Z,100621.91
2022-12-26T14:01:17.589Z,100599.06
2022-12-26T14:03:53.304Z,100629.72
2022-12-26T14:06:29.866Z,100617.22
2022-12-26T14:09:18.403Z,100632.88
2022-12-26T14:12:09.972Z,100651.91
2022-12-26T14:14:50.763Z,100653.09
2022-12-26T14:17:35.884Z,100668.53
2022-12-26T14:20:16.842Z,100672.34
2022-12-26T14:23:09.494Z,100632.31
2022-12-26T14:25:51.300Z,100683.84
2022-12-26T14:28:20.734Z,100680.44
2022-12-26T14:30:59.757Z,100688.53
2022-12-26T14:33:35.625Z,100685.22
2022-12-26T14:36:14.218Z,100694.94
2022-12-26T14:38:48.313Z,100685.97
2022-12-26T14:41:35.662Z,100701.56
2022-12-26T14:44:20.477Z,100705.25
2022-12-26T14:46:50.016Z,100718.75
2022-12-26T14:49:35.538Z,100721.88
2022-12-26T14:52:24.261Z,100718.16
2022-12-26T14:54:54.294Z,100712.69
2022-12-26T14:57:45.708Z,100725.66
2022-12-26T15:00:25.856Z,100715.19
2022-12-26T15:02:58.462Z,100743.53
2022-12-26T15:05:28.167Z,100735.53
2022-12-26T15:08:13.126Z,100703.78
2022-12-26T15:10:54.499Z,100696.34
2022-12-26T15:13:20.930Z,100761.75
2022-12-26T15:16:12.533Z,100769.25
2022-12-26T15:18:47.930Z,100777.94
2022-12-26T15:21:45.414Z,100782.28
2022-12-26T15:24:11.853Z,100768.78
2022-12-26T15:27:15.810Z,100785.72
2022-12-26T15:30:19.443Z,100782.69
2022-12-26T15:32:54.947Z,100786.75
2022-12-26T15:35:50.968Z,100784.53
2022-12-26T15:38:47.256Z,100800.63
2022-12-26T15:41:18.675Z,100797.63
2022-12-26T15:44:09.127Z,100802.41
2022-12-26T15:46:42.736Z,100800.50
2022-12-26T15:49:22.303Z,100810.66
2022-12-26T15:51:56.340Z,100821.69
2022-12-26T15:54:44.783Z,100821.78
2022-12-26T15:57:29.560Z,100828.44
2022-12-26T16:00:12.986Z,100837.34
2022-12-26T16:02:47.821Z,100834.88
2022-12-26T16:05:32.472Z,100818.91
2022-12-26T16:08:15.001Z,100810.47
2022-12-26T16:10:44.601Z,100862.53
2022-12-26T16:13:22.636Z,100867.06
2022-12-26T16:15:56.780Z,100824.31
2022-12-26T16:18:30.644Z,100870.47
2022-12-26T16:21:19.454Z,100852.56
2022-12-26T16:23:46.688Z,100883.47
2022-12-26T16:26:25.041Z,100873.09
2022-12-26T16:28:52.123Z,100866.88
2022-12-26T16:31:21.928Z,100872.44
2022-12-26T16:33:48.509Z,100851.94
2022-12-26T16:36:26.574Z,100882.00
2022-12-26T16:38:53.977Z,100880.47
2022-12-26T16:41:25.556Z,100872.03
2022-12-26T16:43:57.069Z,100885.25
2022-12-26T16:46:28.744Z,100907.91
2022-12-26T16:48:59.487Z,100921.59
2022-12-26T16:51:42.665Z,100895.47
2022-12-26T16:54:21.271Z,100935.00
2022-12-26T16:56:51.273Z,100933.13
2022-12-26T16:59:21.752Z,100927.41
2022-12-26T17:01:50.470Z,100922.84
2022-12-26T17:04:23.336Z,100900.59
2022-12-26T17:06:55.358Z,100934.84
2022-12-26T17:09:24.044Z,100938.50
2022-12-26T17:12:07.736Z,100945.09
2022-12-26T17:14:40.256Z,100954.72
2022-12-26T17:17:22.124Z,100961.56
2022-12-26T17:19:56.560Z,100959.44
2022-12-26T17:22:29.249Z,100968.94
2022-12-26T17:25:26.192Z,100969.41
2022-12-26T17:28:08.067Z,100967.97
2022-12-26T17:30:41.377Z,100971.28
2022-12-26T17:33:13.975Z,100978.09
2022-12-26T17:36:32.876Z,100958.00
2022-12-26T17:38:28.521Z,100968.25
2022-12-26T17:40:56.633Z,100934.47
2022-12-26T17:43:24.370Z,100983.94
2022-12-26T17:45:51.366Z,100985.31
2022-12-26T17:48:18.037Z,100982.84
2022-12-26T17:50:47.169Z,100988.47
2022-12-26T17:53:22.417Z,100957.03
2022-12-26T17:55:53.424Z,100973.28
2022-12-26T17:58:20.268Z,100992.69
2022-12-26T18:00:47.285Z,100996.16
2022-12-26T18:03:14.849Z,100998.16
2022-12-26T18:05:42.842Z,100998.88
2022-12-26T18:08:20.132Z,101008.41
2022-12-26T18:10:46.723Z,101010.34
2022-12-26T18:13:15.449Z,101008.50
2022-12-26T18:15:42.134Z,101017.38
2022-12-26T18:18:22.837Z,101021.84
2022-12-26T18:20:50.208Z,101031.72
2022-12-26T18:23:16.926Z,101038.56
2022-12-26T18:25:43.626Z,101000.00
2022-12-26T18:28:12.718Z,101043.56
2022-12-26T18:30:39.501Z,101054.16
2022-12-26T18:33:05.977Z,101053.69
2022-12-26T18:35:32.561Z,101067.97
2022-12-26T18:37:59.426Z,101068.75
2022-12-26T18:40:35.067Z,101069.81
2022-12-26T18:43:02.415Z,101019.41
2022-12-26T18:45:32.269Z,101064.88
2022-12-26T18:48:00.999Z,101042.41
2022-12-26T18:50:29.529Z,101074.38
2022-12-26T18:52:56.004Z,101040.06
2022-12-26T18:55:23.616Z,101090.25
2022-12-26T18:57:50.359Z,101100.53
2022-12-26T19:00:17.983Z,101093.41
2022-12-26T19:02:48.703Z,101074.97
2022-12-26T19:05:21.836Z,101112.31
2022-12-26T19:07:50.081Z,101110.88
2022-12-26T19:10:18.795Z,101117.16
2022-12-26T19:12:45.494Z,101122.50
2022-12-26T19:15:14.502Z,101110.19
2022-12-26T19:17:43.609Z,101138.22
2022-12-26T19:20:24.189Z,101134.56
2022-12-26T19:22:52.353Z,101140.13
2022-12-26T19:25:21.097Z,101125.25
2022-12-26T19:27:48.366Z,101140.69
2022-12-26T19:30:15.812Z,101156.44
2022-12-26T19:32:45.502Z,101145.38
2022-12-26T19:35:12.526Z,101169.75
2022-12-26T19:37:39.070Z,101144.91
2022-12-26T19:40:07.067Z,101176.59
2022-12-26T19:42:38.219Z,101183.25
2022-12-26T19:45:06.571Z,101184.25
2022-12-26T19:47:34.349Z,101161.94
2022-12-26T19:50:01.211Z,101191.16
2022-12-26T19:52:27.823Z,101181.09
2022-12-26T19:54:54.400Z,101199.00
2022-12-26T19:57:23.246Z,101187.63
2022-12-26T19:59:50.515Z,101205.41
2022-12-26T20:02:17.203Z,101206.84
2022-12-26T20:04:44.201Z,101210.69
2022-12-26T20:07:10.700Z,101194.66
2022-12-26T20:09:37.307Z,101222.47
2022-12-26T20:12:06.700Z,101228.09
2022-12-26T20:14:33.416Z,101206.97
2022-12-26T20:17:05.629Z,101235.44
2022-12-26T20:19:36.924Z,101235.94
2022-12-26T20:22:04.140Z,101240.13
2022-12-26T20:24:30.804Z,101233.41
2022-12-26T20:26:57.364Z,101182.25
2022-12-26T20:29:23.901Z,101251.13
2022-12-26T20:31:50.695Z,101225.34
2022-12-26T20:34:17.498Z,101206.22
2022-12-26T20:36:44.020Z,101247.81
2022-12-26T20:39:13.348Z,101253.38
2022-12-26T20:41:39.919Z,101245.47
2022-12-26T20:44:06.930Z,101236.28
2022-12-26T20:46:34.554Z,101263.19
2022-12-26T20:49:02.231Z,101261.81
2022-12-26T20:51:36.821Z,101261.44
2022-12-26T20:54:03.854Z,101234.16
2022-12-26T20:56:30.447Z,101273.31
2022-12-26T20:58:59.297Z,101240.22
2022-12-26T21:01:27.476Z,101272.41
2022-12-26T21:03:55.190Z,101260.88
2022-12-26T21:06:24.846Z,101268.75
2022-12-26T21:08:53.181Z,101272.16
2022-12-26T21:11:25.575Z,101254.53
2022-12-26T21:13:55.805Z,101278.59
2022-12-26T21:16:35.354Z,101273.34
2022-12-26T21:19:02.796Z,101275.91
2022-12-26T21:21:35.304Z,101276.16
2022-12-26T21:24:08.199Z,101235.50
2022-12-26T21:26:36.602Z,101281.59
2022-12-26T21:29:05.157Z,101287.41
2022-12-26T21:31:32.160Z,101296.19
2022-12-26T21:34:00.218Z,101299.31
2022-12-26T21:36:27.565Z,101306.84
2022-12-26T21:38:54.628Z,101265.69
2022-12-26T21:41:21.703Z,101299.41
2022-12-26T21:43:48.423Z,101294.50
2022-12-26T21:46:16.944Z,101300.53
2022-12-26T21:48:50.320Z,101308.81
2022-12-26T21:51:18.336Z,101280.41
2022-12-26T21:53:45.458Z,101307.03
2022-12-26T21:56:13.305Z,101312.44
2022-12-26T21:58:59.034Z,101318.06
2022-12-26T22:01:26.283Z,101316.84
2022-12-26T22:04:12.206Z,101306.84
2022-12-26T22:06:39.440Z,101311.19
2022-12-26T22:09:06.685Z,101316.22
2022-12-26T22:11:51.743Z,101297.13
2022-12-26T22:14:18.212Z,101310.47
2022-12-26T22:16:44.681Z,101335.19
2022-12-26T22:19:11.133Z,101333.75
2022-12-26T22:21:39.713Z,101338.69
2022-12-26T22:24:06.766Z,101286.47
2022-12-26T22:26:33.267Z,101286.50
2022-12-26T22:28:59.912Z,101291.75
2022-12-26T22:31:28.816Z,101342.09
2022-12-26T22:33:57.101Z,101349.56
2022-12-26T22:36:24.497Z,101343.91
2022-12-26T22:38:51.143Z,101340.72
2022-12-26T22:41:17.684Z,101352.72
2022-12-26T22:43:44.645Z,101347.50
2022-12-26T22:46:12.307Z,101359.69
2022-12-26T22:48:39.421Z,101366.25
2022-12-26T22:51:06.346Z,101321.81
2022-12-26T22:53:32.873Z,101327.59
2022-12-26T22:56:02.702Z,101380.47
2022-12-26T22:58:30.201Z,101357.56
2022-12-26T23:00:56.994Z,101336.44
2022-12-26T23:03:24.632Z,101376.34
2022-12-26T23:05:51.477Z,101381.56
2022-12-26T23:08:21.374Z,101383.41
2022-12-26T23:10:48.903Z,101353.34
2022-12-26T23:13:16.270Z,101390.88
2022-12-26T23:16:09.739Z,101383.13
2022-12-26T23:19:04.559Z,101363.81
2022-12-26T23:21:43.710Z,101375.75
2022-12-26T23:24:21.909Z,101387.94
2022-12-26T23:26:51.653Z,101387.81
2022-12-26T23:29:38.975Z,101360.28
2022-12-26T23:32:07.699Z,101389.03
2022-12-26T23:34:34.737Z,101347.09
2022-12-26T23:37:01.529Z,101397.50
2022-12-26T23:39:28.057Z,101358.84
2022-12-26T23:41:54.800Z,101404.91
2022-12-26T23:44:21.311Z,101412.00
2022-12-26T23:46:47.921Z,101375.31
2022-12-26T23:49:15.678Z,101410.53
2022-12-26T23:51:42.873Z,101387.47
2022-12-26T23:54:09.823Z,101402.94
2022-12-26T23:56:36.684Z,101403.94
2022-12-26T23:59:04.131Z,101409.28
